Time;durP1;ratioP1;P1;durP2;ratioP2;P2;SDS_P1;SDS_P2;PMS_P1;PMS_P2;Temp;Humidity;BMP_temperature;BMP_pressure;BME280_temperature;BME280_humidity;BME280_pressure;Samples;Min_cycle;Max_cycle;Signal;HPM_P1;HPM_P2
2021/06/01 00:01:13;;;;;;;5.32;4.10;;;;;;;;;;5072336;28;20033;-65
2021/06/01 00:03:38;;;;;;;5.18;4.18;;;;;;;;;;5069234;28;20028;-65
2021/06/01 00:06:03;;;;;;;6.88;5.03;;;;;;;;;;5060469;28;20025;-65
2021/06/01 00:08:29;;;;;;;6.68;4.70;;;;;;;;;;5100032;28;20716;-65
2021/06/01 00:10:55;;;;;;;5.72;4.93;;;;;;;;;;5059210;28;20044;-65
2021/06/01 00:13:20;;;;;;;6.28;4.80;;;;;;;;;;5061981;28;21404;-65
2021/06/01 00:15:46;;;;;;;6.05;5.28;;;;;;;;;;5096713;28;20033;-65
2021/06/01 00:18:11;;;;;;;5.95;5.32;;;;;;;;;;5068230;28;20020;-65
2021/06/01 00:20:36;;;;;;;6.60;4.90;;;;;;;;;;5104331;28;20024;-65
2021/06/01 00:23:02;;;;;;;9.50;6.20;;;;;;;;;;5059691;28;20017;-65
2021/06/01 00:25:27;;;;;;;8.70;6.30;;;;;;;;;;5069205;28;20028;-65
2021/06/01 00:27:52;;;;;;;9.57;7.00;;;;;;;;;;5068275;28;20071;-65
2021/06/01 00:30:18;;;;;;;9.77;7.13;;;;;;;;;;5071546;28;20024;-65
2021/06/01 00:32:43;;;;;;;12.50;9.20;;;;;;;;;;5069240;28;20028;-65
2021/06/01 00:35:08;;;;;;;13.45;9.95;;;;;;;;;;5071340;28;20051;-65
2021/06/01 00:37:33;;;;;;;15.55;10.98;;;;;;;;;;5069545;28;22142;-65
2021/06/01 00:39:59;;;;;;;13.30;10.23;;;;;;;;;;5070756;28;20052;-65
2021/06/01 00:42:24;;;;;;;9.98;8.48;;;;;;;;;;5069946;28;20099;-65
2021/06/01 00:44:51;;;;;;;11.20;7.70;;;;;;;;;;5071259;28;20103;-65
2021/06/01 00:47:16;;;;;;;9.50;7.10;;;;;;;;;;5069216;28;20036;-65
2021/06/01 00:49:41;;;;;;;9.50;6.40;;;;;;;;;;5070898;28;20034;-65
2021/06/01 00:52:07;;;;;;;7.72;5.35;;;;;;;;;;5071612;28;20081;-65
2021/06/01 00:54:32;;;;;;;7.25;5.03;;;;;;;;;;5070762;28;20502;-65
2021/06/01 00:56:58;;;;;;;5.53;4.90;;;;;;;;;;5067185;28;20028;-65
2021/06/01 00:59:23;;;;;;;5.10;4.60;;;;;;;;;;5069365;28;20016;-65
2021/06/01 01:01:48;;;;;;;6.93;5.10;;;;;;;;;;5070572;28;20035;-65
2021/06/01 01:04:14;;;;;;;5.03;4.22;;;;;;;;;;5071417;28;20021;-65
2021/06/01 01:06:52;;;;;;;6.18;4.88;;;;;;;;;;5068074;28;20027;-64
2021/06/01 01:09:17;;;;;;;6.85;4.55;;;;;;;;;;5058610;28;20025;-65
2021/06/01 01:11:53;;;;;;;5.20;4.45;;;;;;;;;;5069906;28;20125;-65
2021/06/01 01:14:22;;;;;;;5.05;4.45;;;;;;;;;;5071111;28;20021;-64
2021/06/01 01:17:13;;;;;;;6.20;4.65;;;;;;;;;;5069047;28;20533;-64
2021/06/01 01:19:46;;;;;;;8.95;5.38;;;;;;;;;;5058649;28;20033;-64
2021/06/01 01:22:11;;;;;;;9.05;6.07;;;;;;;;;;5086656;28;20534;-65
2021/06/01 01:24:49;;;;;;;5.63;4.65;;;;;;;;;;5079861;28;20020;-65
2021/06/01 01:27:25;;;;;;;5.40;4.90;;;;;;;;;;5068883;28;20032;-65
2021/06/01 01:29:52;;;;;;;6.13;4.93;;;;;;;;;;5071554;28;20029;-65
2021/06/01 01:32:20;;;;;;;8.95;5.47;;;;;;;;;;5071609;28;20035;-65
2021/06/01 01:34:47;;;;;;;6.00;5.40;;;;;;;;;;5071242;28;20101;-65
2021/06/01 01:37:12;;;;;;;7.28;5.00;;;;;;;;;;5072003;28;20032;-65
2021/06/01 01:39:44;;;;;;;5.63;4.70;;;;;;;;;;5072597;28;20503;-65
2021/06/01 01:42:11;;;;;;;7.63;4.95;;;;;;;;;;5074478;28;20074;-65
2021/06/01 01:44:46;;;;;;;6.22;4.85;;;;;;;;;;5073939;28;20394;-65
2021/06/01 01:50:08;;;;;;;6.07;4.88;;;;;;;;;;5051888;28;20531;-65
2021/06/01 01:52:37;;;;;;;6.32;4.90;;;;;;;;;;5051875;28;20036;-65
2021/06/01 01:55:03;;;;;;;6.90;5.28;;;;;;;;;;5035310;28;20450;-65
2021/06/01 01:57:29;;;;;;;6.43;5.53;;;;;;;;;;5031869;28;20063;-65
2021/06/01 01:59:54;;;;;;;7.20;5.47;;;;;;;;;;5052306;28;20032;-65
2021/06/01 02:02:19;;;;;;;6.80;5.05;;;;;;;;;;5035426;28;20031;-65
2021/06/01 02:04:44;;;;;;;6.65;5.03;;;;;;;;;;5051272;28;20020;-66
2021/06/01 02:07:10;;;;;;;6.30;5.53;;;;;;;;;;5050107;28;20041;-64
2021/06/01 02:09:35;;;;;;;7.22;5.35;;;;;;;;;;5034923;28;20081;-64
2021/06/01 02:12:01;;;;;;;5.72;5.03;;;;;;;;;;5051835;28;20104;-64
2021/06/01 02:14:26;;;;;;;8.15;5.30;;;;;;;;;;5050871;28;20052;-65
2021/06/01 02:16:52;;;;;;;6.25;5.03;;;;;;;;;;5048225;28;20761;-65
2021/06/01 02:19:19;;;;;;;6.43;5.30;;;;;;;;;;5051672;28;20036;-64
2021/06/01 02:22:04;;;;;;;7.53;5.00;;;;;;;;;;5041013;28;20115;-64
2021/06/01 02:24:30;;;;;;;;;;;;;;;;;;5052180;28;20419;-64
2021/06/01 02:26:55;;;;;;;7.04;4.86;;;;;;;;;;5050197;28;19988;-64
2021/06/01 02:29:27;;;;;;;6.22;4.78;;;;;;;;;;5071822;28;20016;-64
2021/06/01 02:31:52;;;;;;;5.65;5.15;;;;;;;;;;5073943;28;20044;-64
2021/06/01 02:34:18;;;;;;;9.15;5.63;;;;;;;;;;5075725;28;20086;-64
2021/06/01 02:36:44;;;;;;;8.32;5.72;;;;;;;;;;5091752;28;20020;-65
2021/06/01 02:39:09;;;;;;;5.80;5.15;;;;;;;;;;5086748;28;20396;-65
2021/06/01 02:41:35;;;;;;;6.43;5.18;;;;;;;;;;5073262;28;20484;-65
2021/06/01 02:44:01;;;;;;;7.13;5.22;;;;;;;;;;5071946;28;20016;-65
2021/06/01 02:46:27;;;;;;;8.15;4.97;;;;;;;;;;5073266;28;20024;-65
2021/06/01 02:48:53;;;;;;;6.35;5.50;;;;;;;;;;5069869;28;20078;-65
2021/06/01 02:51:19;;;;;;;7.28;5.80;;;;;;;;;;5073178;28;20033;-65
2021/06/01 02:53:46;;;;;;;6.30;5.28;;;;;;;;;;5073514;28;20031;-65
2021/06/01 02:56:12;;;;;;;9.88;6.55;;;;;;;;;;5073203;28;20028;-65
2021/06/01 02:58:41;;;;;;;6.18;5.45;;;;;;;;;;5069670;28;20361;-65
2021/06/01 03:01:10;;;;;;;7.03;5.25;;;;;;;;;;5072475;28;20032;-65
2021/06/01 03:03:35;;;;;;;6.18;5.57;;;;;;;;;;5071150;28;20104;-65
2021/06/01 03:06:00;;;;;;;6.28;5.22;;;;;;;;;;5072596;28;20032;-65
2021/06/01 03:08:28;;;;;;;5.57;4.47;;;;;;;;;;5069921;28;20046;-65
2021/06/01 03:10:56;;;;;;;7.40;4.60;;;;;;;;;;5072561;28;20023;-65
2021/06/01 03:13:22;;;;;;;5.10;4.07;;;;;;;;;;5071879;28;20396;-65
2021/06/01 03:15:47;;;;;;;4.32;3.70;;;;;;;;;;5072852;28;20026;-64
2021/06/01 03:18:13;;;;;;;5.10;3.80;;;;;;;;;;5069873;28;20027;-65
2021/06/01 03:20:38;;;;;;;4.38;3.97;;;;;;;;;;5071263;28;20030;-65
2021/06/01 03:23:03;;;;;;;4.55;3.70;;;;;;;;;;5071187;28;20111;-65
2021/06/01 03:25:29;;;;;;;4.32;3.80;;;;;;;;;;5072444;28;20099;-65
2021/06/01 03:27:54;;;;;;;4.90;4.05;;;;;;;;;;5069297;28;20137;-64
2021/06/01 03:30:20;;;;;;;5.10;4.05;;;;;;;;;;5072518;28;20032;-65
2021/06/01 03:32:45;;;;;;;6.30;3.90;;;;;;;;;;5071315;28;20056;-65
2021/06/01 03:35:10;;;;;;;4.10;3.10;;;;;;;;;;5072598;28;20024;-65
2021/06/01 03:37:36;;;;;;;4.75;4.00;;;;;;;;;;5068789;28;20020;-65
2021/06/01 03:40:02;;;;;;;4.38;3.55;;;;;;;;;;5071901;28;20060;-65
2021/06/01 03:42:27;;;;;;;4.13;3.42;;;;;;;;;;5072432;28;20031;-65
2021/06/01 03:44:52;;;;;;;5.55;3.42;;;;;;;;;;5070809;28;20024;-65
2021/06/01 03:47:18;;;;;;;3.60;3.30;;;;;;;;;;5069585;28;20060;-65
2021/06/01 03:49:43;;;;;;;4.80;3.70;;;;;;;;;;5070834;28;20033;-65
2021/06/01 03:52:09;;;;;;;6.30;4.13;;;;;;;;;;5071814;28;20020;-65
2021/06/01 03:54:35;;;;;;;3.83;3.17;;;;;;;;;;5071860;28;20043;-65
2021/06/01 03:57:00;;;;;;;6.13;3.65;;;;;;;;;;5069981;28;20028;-65
2021/06/01 03:59:26;;;;;;;6.90;3.63;;;;;;;;;;5071620;28;20012;-65
2021/06/01 04:01:51;;;;;;;4.22;3.40;;;;;;;;;;5071143;28;20027;-65
2021/06/01 04:04:16;;;;;;;7.57;3.65;;;;;;;;;;5071907;28;20470;-65
2021/06/01 04:06:42;;;;;;;4.40;3.45;;;;;;;;;;5070370;28;20025;-65
2021/06/01 04:09:07;;;;;;;4.38;3.90;;;;;;;;;;5069659;28;20028;-65
2021/06/01 04:11:32;;;;;;;5.13;3.63;;;;;;;;;;5072085;28;20020;-65
2021/06/01 04:13:57;;;;;;;4.85;4.00;;;;;;;;;;5071651;28;20024;-65
2021/06/01 04:16:23;;;;;;;5.38;4.55;;;;;;;;;;5071181;28;20111;-65
2021/06/01 04:18:48;;;;;;;5.35;3.92;;;;;;;;;;5068429;28;20031;-65
2021/06/01 04:21:13;;;;;;;6.18;4.53;;;;;;;;;;5073722;28;20438;-65
2021/06/01 04:23:38;;;;;;;4.82;4.25;;;;;;;;;;5072333;28;20360;-65
2021/06/01 04:26:03;;;;;;;5.85;4.35;;;;;;;;;;5071377;28;20016;-65
2021/06/01 04:28:29;;;;;;;6.68;4.70;;;;;;;;;;5068971;28;20119;-64
2021/06/01 04:30:54;;;;;;;8.60;5.03;;;;;;;;;;5070778;28;20052;-65
2021/06/01 04:33:19;;;;;;;8.00;6.13;;;;;;;;;;5071379;28;20028;-65
2021/06/01 04:35:44;;;;;;;6.60;5.82;;;;;;;;;;5071884;28;20498;-64
2021/06/01 04:38:10;;;;;;;8.95;5.20;;;;;;;;;;5069177;28;20071;-65
2021/06/01 04:40:35;;;;;;;5.68;4.72;;;;;;;;;;5069469;28;20139;-64
2021/06/01 04:43:01;;;;;;;8.02;5.03;;;;;;;;;;5071421;28;20066;-65
2021/06/01 04:45:26;;;;;;;6.47;4.82;;;;;;;;;;5071854;28;20047;-65
2021/06/01 04:47:51;;;;;;;5.03;4.53;;;;;;;;;;5068434;28;20364;-64
2021/06/01 04:50:17;;;;;;;6.30;4.45;;;;;;;;;;5070281;28;20028;-64
2021/06/01 04:52:42;;;;;;;4.97;4.22;;;;;;;;;;5071491;28;20028;-64
2021/06/01 04:55:10;;;;;;;5.20;4.32;;;;;;;;;;5071403;28;20039;-65
2021/06/01 04:57:35;;;;;;;4.47;3.88;;;;;;;;;;5069238;28;20021;-65
2021/06/01 05:00:00;;;;;;;6.95;3.80;;;;;;;;;;5070929;28;20183;-65
2021/06/01 05:02:25;;;;;;;6.30;4.32;;;;;;;;;;5071522;28;20103;-65
2021/06/01 05:04:51;;;;;;;5.78;3.75;;;;;;;;;;5070414;28;20722;-65
2021/06/01 05:07:16;;;;;;;4.78;3.60;;;;;;;;;;5069758;28;20021;-65
2021/06/01 05:09:41;;;;;;;5.18;3.60;;;;;;;;;;5070673;28;20033;-65
2021/06/01 05:12:07;;;;;;;4.05;3.60;;;;;;;;;;5074026;28;20099;-65
2021/06/01 05:14:32;;;;;;;6.90;4.05;;;;;;;;;;5073106;28;20029;-65
2021/06/01 05:16:57;;;;;;;6.97;3.75;;;;;;;;;;5072089;28;20024;-65
2021/06/01 05:19:22;;;;;;;5.93;3.85;;;;;;;;;;5074262;28;20065;-65
2021/06/01 05:21:48;;;;;;;5.30;3.25;;;;;;;;;;5074767;28;20016;-65
2021/06/01 05:24:13;;;;;;;4.32;3.20;;;;;;;;;;5073395;28;20039;-65
2021/06/01 05:26:39;;;;;;;6.72;3.17;;;;;;;;;;5071775;28;20028;-65
2021/06/01 05:29:04;;;;;;;5.50;2.95;;;;;;;;;;5073713;28;20024;-65
2021/06/01 05:31:54;;;;;;;4.85;2.88;;;;;;;;;;5074507;28;20026;-65
2021/06/01 05:34:22;;;;;;;5.53;3.22;;;;;;;;;;5074184;28;20017;-65
2021/06/01 05:36:47;;;;;;;4.93;3.28;;;;;;;;;;5064841;28;20033;-65
2021/06/01 05:39:14;;;;;;;4.95;3.17;;;;;;;;;;5070403;28;20539;-65
2021/06/01 05:41:39;;;;;;;5.05;3.30;;;;;;;;;;5063240;28;20048;-65
2021/06/01 05:44:04;;;;;;;6.93;3.22;;;;;;;;;;5054877;28;20110;-65
2021/06/01 05:46:30;;;;;;;5.70;3.40;;;;;;;;;;5059002;28;20530;-65
2021/06/01 05:48:55;;;;;;;7.45;3.88;;;;;;;;;;5071653;28;20588;-65
2021/06/01 05:51:25;;;;;;;5.43;3.45;;;;;;;;;;5074462;28;20016;-65
2021/06/01 05:53:52;;;;;;;5.30;4.03;;;;;;;;;;5073314;28;20459;-65
2021/06/01 05:56:17;;;;;;;6.30;3.92;;;;;;;;;;5070132;28;20017;-65
2021/06/01 05:58:42;;;;;;;5.38;4.00;;;;;;;;;;5054777;28;20024;-65
2021/06/01 06:01:07;;;;;;;7.35;4.32;;;;;;;;;;5120144;27;20383;-65
2021/06/01 06:03:33;;;;;;;4.13;3.72;;;;;;;;;;5074542;28;20046;-65
2021/06/01 06:05:59;;;;;;;8.77;3.97;;;;;;;;;;5074474;28;20013;-65
2021/06/01 06:08:26;;;;;;;9.48;4.80;;;;;;;;;;5071743;28;20438;-65
2021/06/01 06:10:51;;;;;;;4.95;3.65;;;;;;;;;;5074196;28;20013;-64
2021/06/01 06:13:17;;;;;;;5.50;3.78;;;;;;;;;;5100859;28;20047;-64
2021/06/01 06:15:42;;;;;;;8.68;3.88;;;;;;;;;;5074048;28;20835;-64
2021/06/01 06:18:13;;;;;;;7.18;3.60;;;;;;;;;;5071003;28;20032;-65
2021/06/01 06:20:39;;;;;;;3.83;3.13;;;;;;;;;;5074215;28;20024;-64
2021/06/01 06:23:04;;;;;;;5.25;3.45;;;;;;;;;;5072267;28;20025;-64
2021/06/01 06:25:29;;;;;;;4.53;3.25;;;;;;;;;;5073883;28;20023;-65
2021/06/01 06:27:55;;;;;;;5.15;3.20;;;;;;;;;;5071822;28;20119;-65
2021/06/01 06:30:20;;;;;;;3.90;3.20;;;;;;;;;;5074111;28;20020;-65
2021/06/01 06:32:46;;;;;;;4.82;2.90;;;;;;;;;;5073322;28;20105;-66
2021/06/01 06:35:11;;;;;;;6.22;3.05;;;;;;;;;;5073544;28;20032;-65
2021/06/01 06:37:36;;;;;;;4.80;3.17;;;;;;;;;;5070617;28;20111;-65
2021/06/01 06:40:03;;;;;;;6.05;3.35;;;;;;;;;;5072327;28;20463;-65
2021/06/01 06:42:28;;;;;;;6.22;2.88;;;;;;;;;;5073232;28;20107;-65
2021/06/01 06:44:54;;;;;;;4.13;3.22;;;;;;;;;;5072310;28;20063;-65
2021/06/01 06:49:45;;;;;;;5.32;3.47;;;;;;;;;;5073355;28;20017;-65
2021/06/01 06:52:11;;;;;;;5.45;3.60;;;;;;;;;;5072602;28;20024;-65
2021/06/01 06:54:37;;;;;;;6.55;3.40;;;;;;;;;;5073151;28;20020;-65
2021/06/01 06:57:02;;;;;;;4.95;3.28;;;;;;;;;;5068986;28;20021;-65
2021/06/01 06:59:28;;;;;;;4.63;2.92;;;;;;;;;;5072757;28;20027;-65
2021/06/01 07:01:53;;;;;;;4.00;2.55;;;;;;;;;;5085232;28;20047;-65
2021/06/01 07:04:18;;;;;;;2.85;2.40;;;;;;;;;;5070084;28;20027;-65
2021/06/01 07:06:47;;;;;;;8.48;2.70;;;;;;;;;;5067290;28;20115;-65
2021/06/01 07:09:13;;;;;;;4.53;2.88;;;;;;;;;;5072726;28;20038;-66
2021/06/01 07:11:38;;;;;;;3.30;2.63;;;;;;;;;;5072914;28;20175;-65
2021/06/01 07:14:26;;;;;;;3.85;2.38;;;;;;;;;;5072685;28;20064;-65
2021/06/01 07:16:52;;;;;;;4.55;2.60;;;;;;;;;;5100377;28;20479;-65
2021/06/01 07:19:17;;;;;;;5.43;2.65;;;;;;;;;;5072912;28;20016;-65
2021/06/01 07:21:42;;;;;;;4.22;2.58;;;;;;;;;;5072998;28;20439;-65
2021/06/01 07:24:10;;;;;;;4.63;3.00;;;;;;;;;;5072529;28;20024;-65
2021/06/01 07:26:35;;;;;;;3.72;2.60;;;;;;;;;;5069790;28;20023;-65
2021/06/01 07:29:00;;;;;;;5.07;2.20;;;;;;;;;;5071311;28;20380;-65
2021/06/01 07:31:25;;;;;;;4.55;2.63;;;;;;;;;;5071068;28;20379;-65
2021/06/01 07:33:51;;;;;;;3.92;2.80;;;;;;;;;;5071281;28;20016;-65
2021/06/01 07:36:17;;;;;;;4.45;1.70;;;;;;;;;;5071578;28;20389;-64
2021/06/01 07:38:42;;;;;;;1.38;1.27;;;;;;;;;;5068806;28;20055;-65
2021/06/01 07:41:08;;;;;;;4.15;1.50;;;;;;;;;;5071283;28;20090;-65
2021/06/01 07:43:33;;;;;;;1.70;1.00;;;;;;;;;;5070906;28;20017;-65
2021/06/01 07:45:58;;;;;;;3.30;1.42;;;;;;;;;;5071519;28;20024;-65
2021/06/01 07:48:24;;;;;;;1.08;0.80;;;;;;;;;;5068979;28;20017;-65
2021/06/01 07:50:50;;;;;;;3.63;1.20;;;;;;;;;;5072000;28;20024;-65
2021/06/01 07:53:16;;;;;;;1.85;1.10;;;;;;;;;;5072409;28;20016;-65
2021/06/01 07:55:41;;;;;;;3.92;1.48;;;;;;;;;;5071746;28;20021;-65
2021/06/01 07:58:06;;;;;;;1.73;1.23;;;;;;;;;;5069443;28;20034;-65
2021/06/01 08:00:31;;;;;;;6.53;1.58;;;;;;;;;;5066890;28;20016;-65
2021/06/01 08:02:57;;;;;;;1.73;0.82;;;;;;;;;;5072489;28;20073;-65
2021/06/01 08:05:23;;;;;;;1.55;0.70;;;;;;;;;;5070196;28;20468;-65
2021/06/01 08:07:49;;;;;;;1.70;0.60;;;;;;;;;;5069507;28;20105;-65
2021/06/01 08:10:16;;;;;;;3.70;0.60;;;;;;;;;;5072099;28;20332;-65
2021/06/01 08:12:41;;;;;;;1.20;0.57;;;;;;;;;;5087880;28;20063;-65
2021/06/01 08:15:07;;;;;;;3.13;0.70;;;;;;;;;;5065783;28;20115;-65
2021/06/01 08:17:32;;;;;;;2.90;1.38;;;;;;;;;;5067464;28;20106;-65
2021/06/01 08:20:07;;;;;;;2.40;1.42;;;;;;;;;;5069104;28;20012;-65
2021/06/01 08:22:33;;;;;;;1.98;0.80;;;;;;;;;;5094593;28;20027;-65
2021/06/01 08:24:58;;;;;;;2.20;1.40;;;;;;;;;;5067991;28;20021;-65
2021/06/01 08:27:23;;;;;;;2.47;1.15;;;;;;;;;;5053785;28;20105;-65
2021/06/01 08:29:49;;;;;;;6.18;1.20;;;;;;;;;;5068836;28;20048;-65
2021/06/01 08:32:14;;;;;;;1.92;1.00;;;;;;;;;;5071771;28;20040;-65
2021/06/01 08:34:39;;;;;;;2.10;1.13;;;;;;;;;;5070598;28;20016;-65
2021/06/01 08:37:06;;;;;;;2.72;1.13;;;;;;;;;;5102048;28;20025;-65
2021/06/01 08:39:31;;;;;;;3.88;1.20;;;;;;;;;;5103773;28;20506;-65
2021/06/01 08:41:57;;;;;;;2.38;1.33;;;;;;;;;;5070993;28;20055;-65
2021/06/01 08:44:23;;;;;;;1.40;1.00;;;;;;;;;;5071063;28;20017;-66
2021/06/01 08:46:50;;;;;;;9.48;1.48;;;;;;;;;;5071979;28;20472;-66
2021/06/01 08:49:16;;;;;;;4.10;1.50;;;;;;;;;;5075297;28;20112;-66
2021/06/01 08:51:41;;;;;;;2.40;1.65;;;;;;;;;;5075153;28;20104;-66
2021/06/01 08:54:07;;;;;;;3.88;1.80;;;;;;;;;;5076069;28;20051;-66
2021/06/01 08:56:32;;;;;;;2.50;1.77;;;;;;;;;;5074095;28;20013;-66
2021/06/01 08:58:57;;;;;;;1.73;1.42;;;;;;;;;;5073668;28;20361;-66
2021/06/01 09:01:22;;;;;;;3.67;1.23;;;;;;;;;;5079071;28;20027;-66
2021/06/01 09:03:57;;;;;;;2.72;2.05;;;;;;;;;;5108432;28;20004;-66
2021/06/01 09:06:36;;;;;;;2.67;1.92;;;;;;;;;;5092823;28;20421;-66
2021/06/01 09:20:56;;;;;;;3.83;2.00;;;;;;;;;;5075487;28;20034;-66
2021/06/01 09:22:35;;;;;;;2.08;1.88;;;;;;;;;;5068871;28;20036;-66
2021/06/01 09:27:55;;;;;;;7.53;2.42;;;;;;;;;;5072346;28;20464;-66
2021/06/01 09:30:39;;;;;;;2.55;2.08;;;;;;;;;;5073875;28;20070;-65
2021/06/01 09:33:13;;;;;;;3.13;2.00;;;;;;;;;;5074818;28;20028;-65
2021/06/01 09:35:39;;;;;;;4.07;2.40;;;;;;;;;;5083749;28;20020;-65
2021/06/01 09:38:04;;;;;;;4.18;2.20;;;;;;;;;;5079464;28;20055;-65
2021/06/01 09:40:30;;;;;;;3.85;2.40;;;;;;;;;;5074502;28;20048;-66
2021/06/01 09:42:55;;;;;;;2.40;1.65;;;;;;;;;;5074699;28;20031;-65
2021/06/01 09:45:21;;;;;;;3.40;2.40;;;;;;;;;;5073544;28;20046;-65
2021/06/01 09:47:52;;;;;;;3.92;1.88;;;;;;;;;;5072891;28;20070;-65
2021/06/01 09:53:10;;;;;;;3.13;1.45;;;;;;;;;;5074776;28;20365;-64
2021/06/01 09:55:41;;;;;;;2.05;1.25;;;;;;;;;;5073306;28;20414;-65
2021/06/01 09:58:07;;;;;;;3.53;2.10;;;;;;;;;;5070157;28;20016;-65
2021/06/01 10:00:34;;;;;;;3.05;2.70;;;;;;;;;;5073207;28;20023;-65
2021/06/01 10:03:03;;;;;;;3.55;2.00;;;;;;;;;;5082563;28;20016;-65
2021/06/01 10:05:38;;;;;;;3.00;1.90;;;;;;;;;;5074170;28;20009;-66
2021/06/01 10:08:14;;;;;;;2.15;1.20;;;;;;;;;;5071358;28;20020;-66
2021/06/01 10:10:40;;;;;;;2.10;0.95;;;;;;;;;;5074031;28;20020;-65
2021/06/01 10:13:06;;;;;;;8.52;1.67;;;;;;;;;;5073051;28;20082;-65
2021/06/01 10:15:32;;;;;;;2.25;1.38;;;;;;;;;;5074559;28;20020;-65
2021/06/01 10:17:58;;;;;;;2.13;1.48;;;;;;;;;;5070920;28;20024;-66
2021/06/01 10:20:24;;;;;;;4.07;2.35;;;;;;;;;;5074025;28;20017;-66
2021/06/01 10:22:50;;;;;;;3.35;2.17;;;;;;;;;;5073097;28;20016;-66
2021/06/01 10:25:16;;;;;;;4.15;1.92;;;;;;;;;;5074017;28;20024;-65
2021/06/01 10:27:42;;;;;;;4.60;3.08;;;;;;;;;;5071700;28;20021;-66
2021/06/01 10:30:08;;;;;;;3.05;2.10;;;;;;;;;;5072642;28;20077;-65
2021/06/01 10:32:39;;;;;;;3.67;2.20;;;;;;;;;;5073282;28;20115;-66
2021/06/01 10:35:08;;;;;;;3.47;1.90;;;;;;;;;;5073611;28;20487;-65
2021/06/01 10:43:15;;;;;;;2.65;2.45;;;;;;;;;;5053984;28;20028;-65
2021/06/01 10:51:26;;;;;;;3.20;1.83;;;;;;;;;;5073783;28;20085;-65
2021/06/01 10:53:51;;;;;;;4.50;2.25;;;;;;;;;;5073198;28;20028;-66
2021/06/01 10:56:16;;;;;;;2.42;2.10;;;;;;;;;;5073337;28;20082;-65
2021/06/01 10:58:44;;;;;;;2.23;1.97;;;;;;;;;;5071147;28;20020;-65
2021/06/01 11:04:05;;;;;;;2.22;1.60;;;;;;;;;;5073434;28;20031;-66
2021/06/01 11:06:32;;;;;;;;;;;;;;;;;;5073211;28;20036;-66
2021/06/01 11:08:57;;;;;;;2.22;1.80;;;;;;;;;;5070942;28;19905;-66
2021/06/01 11:11:22;;;;;;;2.03;1.83;;;;;;;;;;5071795;28;20162;-66
2021/06/01 11:13:47;;;;;;;2.93;1.90;;;;;;;;;;5073080;28;20351;-65
2021/06/01 11:16:13;;;;;;;4.07;2.60;;;;;;;;;;5072892;28;20448;-65
2021/06/01 11:18:43;;;;;;;2.43;2.00;;;;;;;;;;5069804;28;20094;-65
2021/06/01 11:21:32;;;;;;;2.60;2.03;;;;;;;;;;5072627;28;20793;-65
2021/06/01 11:35:20;;;;;;;6.70;1.92;;;;;;;;;;5072909;28;20039;-65
2021/06/01 11:43:06;;;;;;;3.35;1.77;;;;;;;;;;5072958;28;20436;-65
2021/06/01 11:45:41;;;;;;;2.35;2.10;;;;;;;;;;5067023;28;20027;-65
2021/06/01 11:48:13;;;;;;;1.83;1.73;;;;;;;;;;5058359;28;20078;-65
2021/06/01 11:50:58;;;;;;;3.55;1.98;;;;;;;;;;5064064;28;20032;-65
2021/06/01 11:53:24;;;;;;;2.53;1.60;;;;;;;;;;5052580;28;20024;-65
2021/06/01 11:55:58;;;;;;;2.47;1.90;;;;;;;;;;5051339;28;20074;-65
2021/06/01 12:03:51;;;;;;;2.10;1.33;;;;;;;;;;5072648;28;20391;-65
2021/06/01 12:17:44;;;;;;;2.38;2.17;;;;;;;;;;5026476;28;20041;-64
2021/06/01 12:20:09;;;;;;;1.90;1.67;;;;;;;;;;5029069;28;20556;-65
2021/06/01 12:22:35;;;;;;;3.03;1.63;;;;;;;;;;5028772;28;20116;-65
2021/06/01 12:25:04;;;;;;;2.37;1.90;;;;;;;;;;5029967;28;20096;-65
2021/06/01 12:27:39;;;;;;;2.55;1.60;;;;;;;;;;5027056;28;20025;-65
2021/06/01 12:33:09;;;;;;;3.63;1.90;;;;;;;;;;5029448;28;20060;-64
2021/06/01 13:14:45;;;;;;;1.90;1.33;;;;;;;;;;5009720;28;20026;-66
2021/06/01 13:20:09;;;;;;;3.10;1.80;;;;;;;;;;5035131;28;20410;-67
2021/06/01 13:40:20;;;;;;;1.40;1.10;;;;;;;;;;5059325;28;20040;-66
2021/06/01 13:46:02;;;;;;;2.20;1.20;;;;;;;;;;5059766;28;20109;-65
2021/06/01 13:48:46;;;;;;;2.13;1.27;;;;;;;;;;5047537;28;20471;-66
2021/06/01 13:56:15;;;;;;;2.05;1.10;;;;;;;;;;5071544;28;20004;-67
2021/06/01 14:09:44;;;;;;;1.20;1.10;;;;;;;;;;5071570;28;20043;-65
2021/06/01 15:10:19;;;;;;;0.90;0.80;;;;;;;;;;5030491;28;20040;-64
2021/06/01 15:49:43;;;;;;;3.38;1.40;;;;;;;;;;5073082;28;20074;-66
2021/06/01 16:11:33;;;;;;;1.63;1.00;;;;;;;;;;5072535;28;20031;-66
2021/06/01 16:14:24;;;;;;;1.17;1.10;;;;;;;;;;5068885;28;20024;-66
2021/06/01 16:30:41;;;;;;;1.67;1.10;;;;;;;;;;5080996;28;20091;-66
2021/06/01 17:03:15;;;;;;;3.17;1.38;;;;;;;;;;5071679;28;20071;-65
2021/06/01 17:05:51;;;;;;;2.30;1.48;;;;;;;;;;5072319;28;20025;-65
2021/06/01 17:11:08;;;;;;;2.08;1.50;;;;;;;;;;5063048;28;20040;-65
2021/06/01 17:13:53;;;;;;;2.40;1.00;;;;;;;;;;5073547;28;20034;-65
2021/06/01 17:34:43;;;;;;;3.33;1.52;;;;;;;;;;5075269;28;20384;-65
2021/06/01 17:37:09;;;;;;;1.77;1.00;;;;;;;;;;5071877;28;20077;-65
2021/06/01 17:39:34;;;;;;;2.70;1.25;;;;;;;;;;5074722;28;20045;-66
2021/06/01 17:42:00;;;;;;;1.33;1.23;;;;;;;;;;5093880;28;20021;-65
2021/06/01 17:44:27;;;;;;;2.22;1.33;;;;;;;;;;5081277;28;20021;-65
2021/06/01 17:46:56;;;;;;;3.72;1.58;;;;;;;;;;5069822;28;20051;-65
2021/06/01 17:49:22;;;;;;;2.40;1.33;;;;;;;;;;5106079;28;20495;-64
2021/06/01 17:51:52;;;;;;;2.25;1.55;;;;;;;;;;5071088;28;20017;-65
2021/06/01 17:54:23;;;;;;;1.80;1.40;;;;;;;;;;5072775;28;20036;-65
2021/06/01 17:56:48;;;;;;;3.47;1.30;;;;;;;;;;5067748;28;20062;-65
2021/06/01 17:59:15;;;;;;;2.13;1.42;;;;;;;;;;5068873;28;20036;-65
2021/06/01 18:01:41;;;;;;;2.50;1.80;;;;;;;;;;5067036;28;20523;-65
2021/06/01 18:04:09;;;;;;;3.72;1.70;;;;;;;;;;5073021;28;20107;-66
2021/06/01 18:06:47;;;;;;;1.67;1.52;;;;;;;;;;5072774;28;20025;-65
2021/06/01 18:12:59;;;;;;;3.90;2.22;;;;;;;;;;5054601;28;20086;-65
2021/06/01 19:50:03;;;;;;;4.50;3.78;;;;;;;;;;5073378;28;20247;-65
2021/06/01 19:52:29;;;;;;;3.20;2.63;;;;;;;;;;5065849;28;20099;-65
2021/06/01 19:54:56;;;;;;;4.63;3.17;;;;;;;;;;5073222;28;20762;-64
2021/06/01 19:57:22;;;;;;;3.90;2.20;;;;;;;;;;5070618;28;20086;-65
2021/06/01 19:59:49;;;;;;;4.30;2.72;;;;;;;;;;5087525;28;20475;-65
2021/06/01 20:02:21;;;;;;;3.42;2.90;;;;;;;;;;5068600;28;20032;-65
2021/06/01 20:04:49;;;;;;;3.08;2.78;;;;;;;;;;5071048;28;20013;-65
2021/06/01 20:07:15;;;;;;;4.15;2.88;;;;;;;;;;5069270;28;20107;-64
2021/06/01 20:09:41;;;;;;;3.25;2.47;;;;;;;;;;5104431;28;20116;-64
2021/06/01 20:12:07;;;;;;;3.88;2.33;;;;;;;;;;5072461;28;20490;-64
2021/06/01 20:14:33;;;;;;;4.25;2.42;;;;;;;;;;5072060;28;20383;-65
2021/06/01 20:16:58;;;;;;;2.38;2.17;;;;;;;;;;5068734;28;20021;-65
2021/06/01 20:19:25;;;;;;;2.83;2.60;;;;;;;;;;5070848;28;20031;-64
2021/06/01 20:21:52;;;;;;;5.15;2.67;;;;;;;;;;5072038;28;20047;-65
2021/06/01 20:24:17;;;;;;;5.45;2.42;;;;;;;;;;5072094;28;20510;-64
2021/06/01 20:26:43;;;;;;;4.03;2.60;;;;;;;;;;5069233;28;20032;-65
2021/06/01 20:29:10;;;;;;;4.00;2.67;;;;;;;;;;5072142;28;20017;-65
2021/06/01 20:31:42;;;;;;;3.60;2.30;;;;;;;;;;5068639;28;20048;-64
2021/06/01 20:34:08;;;;;;;3.83;2.63;;;;;;;;;;5084485;28;20032;-65
2021/06/01 20:36:34;;;;;;;3.58;2.58;;;;;;;;;;5070691;28;20471;-64
2021/06/01 20:39:00;;;;;;;2.83;2.63;;;;;;;;;;5070314;28;20044;-64
2021/06/01 20:41:28;;;;;;;3.28;2.75;;;;;;;;;;5078258;28;20019;-65
2021/06/01 20:43:55;;;;;;;4.88;2.60;;;;;;;;;;5079995;28;20031;-64
2021/06/01 20:46:21;;;;;;;6.78;3.05;;;;;;;;;;5081212;28;20017;-64
2021/06/01 20:48:46;;;;;;;3.03;2.70;;;;;;;;;;5074085;28;20024;-64
2021/06/01 20:51:12;;;;;;;2.83;2.53;;;;;;;;;;5074168;28;20082;-65
2021/06/01 20:53:38;;;;;;;3.33;2.90;;;;;;;;;;5076663;28;20029;-64
2021/06/01 20:56:04;;;;;;;5.30;2.58;;;;;;;;;;5088818;28;20436;-64
2021/06/01 20:58:34;;;;;;;3.08;2.58;;;;;;;;;;5094281;28;20020;-64
2021/06/01 21:00:59;;;;;;;3.72;3.00;;;;;;;;;;5083359;28;20460;-64
2021/06/01 21:03:26;;;;;;;4.55;2.88;;;;;;;;;;5087012;28;20020;-64
2021/06/01 21:05:51;;;;;;;2.88;2.65;;;;;;;;;;5084174;28;20544;-64
2021/06/01 21:08:17;;;;;;;3.03;2.72;;;;;;;;;;5073883;28;20024;-64
2021/06/01 21:10:43;;;;;;;4.45;2.90;;;;;;;;;;5072492;28;20043;-64
2021/06/01 21:13:08;;;;;;;3.72;3.10;;;;;;;;;;5069336;28;20468;-64
2021/06/01 21:15:34;;;;;;;4.65;2.90;;;;;;;;;;5068741;28;20025;-63
2021/06/01 21:17:59;;;;;;;3.40;2.85;;;;;;;;;;5075350;28;20043;-63
2021/06/01 21:20:25;;;;;;;4.65;3.05;;;;;;;;;;5076898;28;20551;-64
2021/06/01 21:22:51;;;;;;;3.80;3.40;;;;;;;;;;5078026;28;20056;-64
2021/06/01 21:25:20;;;;;;;3.15;2.72;;;;;;;;;;5077080;28;20041;-64
2021/06/01 21:27:46;;;;;;;3.45;3.13;;;;;;;;;;5110241;27;20388;-64
2021/06/01 21:30:12;;;;;;;4.57;3.38;;;;;;;;;;5076827;28;20074;-64
2021/06/01 21:32:42;;;;;;;4.97;3.33;;;;;;;;;;5077800;28;20052;-64
2021/06/01 21:35:08;;;;;;;4.13;3.40;;;;;;;;;;5075564;28;20024;-64
2021/06/01 21:37:46;;;;;;;5.35;3.47;;;;;;;;;;5074691;28;20376;-63
2021/06/01 21:40:13;;;;;;;6.20;3.30;;;;;;;;;;5076255;28;20020;-63
2021/06/01 21:42:39;;;;;;;3.92;3.50;;;;;;;;;;5080405;28;20018;-64
2021/06/01 21:45:07;;;;;;;6.55;3.67;;;;;;;;;;5076844;28;20505;-64
2021/06/01 21:47:35;;;;;;;3.72;3.40;;;;;;;;;;5074506;28;20028;-64
2021/06/01 21:50:01;;;;;;;5.75;4.22;;;;;;;;;;5076761;28;20082;-64
2021/06/01 21:52:26;;;;;;;7.05;3.78;;;;;;;;;;5074675;28;20495;-64